Time;durP1;ratioP1;P1;durP2;ratioP2;P2;SDS_P1;SDS_P2;PMS_P1;PMS_P2;Temp;Humidity;BMP_temperature;BMP_pressure;BME280_temperature;BME280_humidity;BME280_pressure;Samples;Min_cycle;Max_cycle;Signal;HPM_P1;HPM_P2
2022/09/19 00:02:04;;;;;;;1.08;0.35;;;;;;;;;;4991824;28;20038;-86
2022/09/19 00:04:51;;;;;;;1.20;0.47;;;;;;;;;;4979354;28;20064;-85
2022/09/19 00:07:38;;;;;;;1.35;0.50;;;;;;;;;;4978949;28;20041;-86
2022/09/19 00:10:25;;;;;;;1.75;0.45;;;;;;;;;;5022346;28;20520;-85
2022/09/19 00:13:13;;;;;;;1.60;0.38;;;;;;;;;;5011269;28;20108;-86
2022/09/19 00:15:59;;;;;;;1.58;0.40;;;;;;;;;;5010707;28;20021;-86
2022/09/19 00:18:46;;;;;;;1.98;0.50;;;;;;;;;;5010943;28;20048;-86
2022/09/19 00:21:35;;;;;;;2.25;0.63;;;;;;;;;;5009932;28;20504;-86
2022/09/19 00:27:28;;;;;;;0.73;0.40;;;;;;;;;;5011970;28;20030;-85
2022/09/19 00:30:13;;;;;;;1.45;0.50;;;;;;;;;;5024812;28;20049;-86
2022/09/19 00:33:00;;;;;;;1.40;0.60;;;;;;;;;;5011020;28;20041;-85
2022/09/19 00:35:54;;;;;;;2.30;0.52;;;;;;;;;;4997025;28;20030;-85
2022/09/19 00:38:40;;;;;;;2.92;0.50;;;;;;;;;;5011627;28;20038;-85
2022/09/19 00:41:27;;;;;;;2.05;0.60;;;;;;;;;;5024118;28;20053;-85
2022/09/19 00:44:21;;;;;;;1.30;0.35;;;;;;;;;;4997372;28;20112;-84
2022/09/19 00:47:17;;;;;;;1.20;0.45;;;;;;;;;;5011022;28;20026;-84
2022/09/19 00:50:10;;;;;;;2.17;0.30;;;;;;;;;;5023685;28;20036;-84
2022/09/19 00:53:01;;;;;;;1.55;0.20;;;;;;;;;;4998111;28;20112;-84
2022/09/19 00:55:47;;;;;;;1.73;0.60;;;;;;;;;;4996974;28;20112;-83
2022/09/19 00:58:34;;;;;;;1.60;0.40;;;;;;;;;;4996992;28;20046;-84
2022/09/19 01:01:20;;;;;;;1.77;0.85;;;;;;;;;;5010203;28;20046;-83
2022/09/19 01:04:35;;;;;;;1.60;0.45;;;;;;;;;;5010970;28;20396;-85
2022/09/19 01:07:32;;;;;;;1.88;0.50;;;;;;;;;;5001746;28;20040;-84
2022/09/19 01:10:50;;;;;;;1.92;0.38;;;;;;;;;;5014596;28;20408;-84
2022/09/19 01:13:47;;;;;;;2.47;0.60;;;;;;;;;;5014140;28;20046;-85
2022/09/19 01:16:41;;;;;;;1.85;0.50;;;;;;;;;;5001431;28;20484;-84
2022/09/19 01:19:36;;;;;;;2.70;0.63;;;;;;;;;;5013138;28;20042;-84
2022/09/19 01:22:46;;;;;;;1.35;0.32;;;;;;;;;;5000367;28;20049;-84
2022/09/19 01:26:01;;;;;;;2.00;0.50;;;;;;;;;;5001185;28;20038;-83
2022/09/19 01:28:50;;;;;;;3.05;0.47;;;;;;;;;;5027788;28;20053;-83
2022/09/19 01:31:41;;;;;;;6.07;0.75;;;;;;;;;;5013867;28;20045;-84
2022/09/19 01:34:32;;;;;;;2.83;0.60;;;;;;;;;;5014000;28;20030;-84
2022/09/19 01:37:27;;;;;;;1.55;0.57;;;;;;;;;;5013214;28;20044;-84
2022/09/19 01:40:14;;;;;;;1.95;0.40;;;;;;;;;;5011926;28;20086;-84
2022/09/19 01:43:00;;;;;;;1.70;0.50;;;;;;;;;;5013810;28;20193;-84
2022/09/19 01:45:46;;;;;;;1.10;0.30;;;;;;;;;;5000440;28;20041;-84
2022/09/19 01:48:45;;;;;;;2.25;0.50;;;;;;;;;;5000552;28;20038;-85
2022/09/19 01:51:41;;;;;;;1.88;0.50;;;;;;;;;;5013257;28;20029;-84
2022/09/19 01:54:48;;;;;;;3.10;0.47;;;;;;;;;;4998622;28;20041;-84
2022/09/19 01:57:50;;;;;;;2.35;0.40;;;;;;;;;;5026095;28;20037;-84
2022/09/19 02:00:42;;;;;;;1.73;0.80;;;;;;;;;;5028027;28;20506;-84
2022/09/19 02:03:45;;;;;;;2.53;0.52;;;;;;;;;;5000271;28;20068;-85
2022/09/19 02:06:47;;;;;;;1.50;0.47;;;;;;;;;;5012047;28;20105;-84
2022/09/19 02:09:47;;;;;;;0.75;0.20;;;;;;;;;;5008596;28;20025;-84
2022/09/19 02:12:34;;;;;;;2.33;0.32;;;;;;;;;;5001887;28;20185;-84
2022/09/19 02:15:21;;;;;;;2.03;0.40;;;;;;;;;;4992750;28;20030;-84
2022/09/19 02:18:14;;;;;;;2.63;0.50;;;;;;;;;;4993854;28;20477;-84
2022/09/19 02:21:25;;;;;;;2.17;0.38;;;;;;;;;;4993243;28;20137;-85
2022/09/19 02:24:13;;;;;;;1.88;0.68;;;;;;;;;;5007607;28;20038;-84
2022/09/19 02:27:09;;;;;;;2.38;0.75;;;;;;;;;;5020124;28;20030;-84
2022/09/19 02:29:58;;;;;;;3.33;0.47;;;;;;;;;;4992997;28;20133;-84
2022/09/19 02:32:48;;;;;;;2.38;0.40;;;;;;;;;;5005922;28;20026;-84
2022/09/19 02:35:50;;;;;;;1.70;0.50;;;;;;;;;;5005763;28;20385;-84
2022/09/19 02:38:58;;;;;;;2.10;0.50;;;;;;;;;;5007298;28;20125;-85
2022/09/19 02:41:54;;;;;;;2.55;0.70;;;;;;;;;;5018291;28;20113;-85
2022/09/19 02:45:04;;;;;;;1.90;0.47;;;;;;;;;;4991731;28;20074;-84
2022/09/19 02:48:28;;;;;;;1.25;0.30;;;;;;;;;;5019337;28;20496;-85
2022/09/19 02:51:26;;;;;;;1.40;0.35;;;;;;;;;;4984917;28;20034;-84
2022/09/19 02:54:21;;;;;;;2.40;0.50;;;;;;;;;;5006443;28;20110;-84
2022/09/19 02:57:09;;;;;;;2.53;0.50;;;;;;;;;;4993346;28;20042;-84
2022/09/19 02:59:58;;;;;;;2.22;0.82;;;;;;;;;;4992345;28;20850;-84
2022/09/19 03:02:56;;;;;;;3.08;0.40;;;;;;;;;;5020120;28;20085;-85
2022/09/19 03:05:42;;;;;;;2.50;0.68;;;;;;;;;;4995087;28;20045;-85
2022/09/19 03:08:28;;;;;;;1.35;0.70;;;;;;;;;;4998357;28;20029;-85
2022/09/19 03:11:15;;;;;;;1.65;0.30;;;;;;;;;;5011509;28;20112;-84
2022/09/19 03:14:02;;;;;;;1.30;0.50;;;;;;;;;;5012379;28;20036;-85
2022/09/19 03:16:49;;;;;;;2.10;0.47;;;;;;;;;;5011274;28;20433;-85
2022/09/19 03:19:36;;;;;;;1.63;0.55;;;;;;;;;;5012108;28;20042;-85
2022/09/19 03:22:23;;;;;;;1.83;0.70;;;;;;;;;;5011706;28;20132;-86
2022/09/19 03:25:09;;;;;;;2.63;0.50;;;;;;;;;;4998526;28;20089;-85
2022/09/19 03:27:56;;;;;;;2.00;0.43;;;;;;;;;;5010279;28;20041;-84
2022/09/19 03:30:43;;;;;;;2.45;0.50;;;;;;;;;;4985410;28;20404;-86
2022/09/19 03:33:29;;;;;;;2.05;0.85;;;;;;;;;;5011776;28;20092;-85
2022/09/19 03:36:17;;;;;;;1.60;0.45;;;;;;;;;;5011040;28;20508;-86
2022/09/19 03:39:03;;;;;;;1.52;0.43;;;;;;;;;;5011058;28;20046;-84
2022/09/19 03:41:50;;;;;;;2.28;0.40;;;;;;;;;;5011157;28;20034;-85
2022/09/19 03:44:36;;;;;;;0.90;0.43;;;;;;;;;;5011578;28;20033;-85
2022/09/19 03:47:24;;;;;;;2.00;0.65;;;;;;;;;;5009721;28;20567;-84
2022/09/19 03:50:10;;;;;;;3.00;0.82;;;;;;;;;;4997035;28;20034;-85
2022/09/19 03:52:58;;;;;;;3.55;0.57;;;;;;;;;;5011207;28;20038;-86
2022/09/19 03:55:44;;;;;;;3.83;0.75;;;;;;;;;;5011135;28;20037;-84
2022/09/19 03:58:30;;;;;;;1.60;0.50;;;;;;;;;;5010762;28;20041;-84
2022/09/19 04:01:17;;;;;;;2.80;0.50;;;;;;;;;;5010144;28;20038;-84
2022/09/19 04:04:04;;;;;;;2.30;0.32;;;;;;;;;;4997175;28;20042;-84
2022/09/19 04:06:50;;;;;;;2.47;0.50;;;;;;;;;;5012434;28;20056;-83
2022/09/19 04:09:36;;;;;;;1.90;0.47;;;;;;;;;;5005857;28;20053;-84
2022/09/19 04:12:23;;;;;;;1.33;0.70;;;;;;;;;;4998269;28;20041;-84
2022/09/19 04:15:09;;;;;;;1.65;0.47;;;;;;;;;;5011027;28;20041;-85
2022/09/19 04:17:55;;;;;;;1.35;0.40;;;;;;;;;;5011592;28;20073;-86
2022/09/19 04:20:41;;;;;;;1.15;0.50;;;;;;;;;;5011457;28;20072;-85
2022/09/19 04:23:28;;;;;;;2.95;0.90;;;;;;;;;;5010627;28;20097;-86
2022/09/19 04:26:15;;;;;;;1.42;0.50;;;;;;;;;;5010231;28;20042;-85
2022/09/19 04:29:03;;;;;;;1.25;0.38;;;;;;;;;;4983479;28;20049;-84
2022/09/19 04:31:49;;;;;;;1.50;0.43;;;;;;;;;;5009446;28;20499;-85
2022/09/19 04:34:36;;;;;;;1.30;0.40;;;;;;;;;;5010559;28;20057;-84
2022/09/19 04:37:23;;;;;;;1.45;0.40;;;;;;;;;;5010239;28;20049;-85
2022/09/19 04:40:09;;;;;;;6.28;0.77;;;;;;;;;;4982760;28;20489;-84
2022/09/19 04:42:57;;;;;;;1.95;0.57;;;;;;;;;;4997606;28;20394;-84
2022/09/19 04:45:45;;;;;;;1.70;0.60;;;;;;;;;;5010315;28;20030;-84
2022/09/19 04:48:32;;;;;;;1.13;0.30;;;;;;;;;;5010244;28;20042;-85
2022/09/19 04:51:19;;;;;;;2.30;0.40;;;;;;;;;;4982674;28;20124;-85
2022/09/19 04:54:05;;;;;;;2.25;0.55;;;;;;;;;;4992801;28;20073;-84
2022/09/19 04:56:52;;;;;;;2.33;0.80;;;;;;;;;;4992464;28;20030;-85
2022/09/19 04:59:39;;;;;;;1.55;0.50;;;;;;;;;;4992076;28;20137;-85
2022/09/19 05:02:30;;;;;;;2.05;0.45;;;;;;;;;;4991567;28;20058;-85
2022/09/19 05:05:17;;;;;;;3.78;0.90;;;;;;;;;;4991510;28;20049;-84
2022/09/19 05:08:04;;;;;;;2.95;0.73;;;;;;;;;;4989598;28;20105;-85
2022/09/19 05:10:51;;;;;;;1.45;0.30;;;;;;;;;;5011248;28;20045;-84
2022/09/19 05:13:40;;;;;;;3.90;0.85;;;;;;;;;;4983141;28;20034;-84
2022/09/19 05:16:26;;;;;;;1.67;0.40;;;;;;;;;;5008835;28;20038;-85
2022/09/19 05:19:13;;;;;;;2.17;0.63;;;;;;;;;;5011302;28;20034;-84
2022/09/19 05:21:59;;;;;;;1.50;0.60;;;;;;;;;;4991135;28;20121;-84
2022/09/19 05:24:45;;;;;;;5.30;1.10;;;;;;;;;;5001766;28;20034;-85
2022/09/19 05:27:36;;;;;;;9.50;1.42;;;;;;;;;;5015032;28;20048;-84
2022/09/19 05:30:24;;;;;;;12.13;2.17;;;;;;;;;;5012568;28;20496;-85
2022/09/19 05:33:11;;;;;;;13.18;3.13;;;;;;;;;;4983353;28;20038;-86
2022/09/19 05:35:59;;;;;;;11.30;3.83;;;;;;;;;;4982423;28;20026;-84
2022/09/19 05:38:48;;;;;;;44.15;19.20;;;;;;;;;;4984710;28;20037;-85
2022/09/19 05:41:35;;;;;;;76.93;44.47;;;;;;;;;;4994045;28;20617;-84
2022/09/19 05:44:23;;;;;;;46.85;27.27;;;;;;;;;;5030291;28;20033;-84
2022/09/19 05:47:09;;;;;;;39.25;20.13;;;;;;;;;;5030644;28;20029;-86
2022/09/19 05:49:55;;;;;;;31.90;15.35;;;;;;;;;;4990980;28;20389;-85
2022/09/19 05:55:46;;;;;;;33.47;13.73;;;;;;;;;;5005904;28;20039;-85
2022/09/19 05:58:33;;;;;;;31.20;13.50;;;;;;;;;;4994276;28;20049;-85
2022/09/19 06:01:20;;;;;;;29.35;11.98;;;;;;;;;;5007501;28;20160;-85
2022/09/19 06:04:07;;;;;;;24.42;11.75;;;;;;;;;;4967468;28;20042;-84
2022/09/19 06:06:53;;;;;;;29.40;12.23;;;;;;;;;;5007780;28;20089;-84
2022/09/19 06:09:42;;;;;;;33.72;12.27;;;;;;;;;;5017565;28;20044;-89
2022/09/19 06:12:31;;;;;;;25.67;11.32;;;;;;;;;;5033567;28;20104;-89
2022/09/19 06:15:18;;;;;;;22.23;9.00;;;;;;;;;;5032707;28;20120;-87
2022/09/19 06:18:04;;;;;;;21.10;9.75;;;;;;;;;;5021646;28;20034;-84
2022/09/19 06:20:30;;;;;;;19.42;10.20;;;;;;;;;;4996670;28;20099;-84
2022/09/19 06:23:02;;;;;;;21.85;8.77;;;;;;;;;;5012789;28;20030;-84
2022/09/19 06:25:30;;;;;;;19.13;8.73;;;;;;;;;;4980271;28;20484;-87
2022/09/19 06:27:56;;;;;;;18.42;7.88;;;;;;;;;;4993391;28;20580;-82
2022/09/19 06:30:22;;;;;;;20.25;7.40;;;;;;;;;;5015177;28;20042;-83
2022/09/19 06:32:50;;;;;;;22.00;8.15;;;;;;;;;;4987911;28;20030;-84
2022/09/19 06:35:23;;;;;;;19.13;7.50;;;;;;;;;;5007059;28;20402;-83
2022/09/19 06:37:49;;;;;;;15.65;6.68;;;;;;;;;;4997123;28;20077;-83
2022/09/19 06:40:18;;;;;;;23.17;7.35;;;;;;;;;;5012111;28;20046;-84
2022/09/19 06:42:44;;;;;;;14.48;5.85;;;;;;;;;;5012241;28;20026;-84
2022/09/19 06:45:13;;;;;;;15.80;6.28;;;;;;;;;;5012237;28;20034;-83
2022/09/19 06:47:39;;;;;;;13.70;5.93;;;;;;;;;;4995270;28;20076;-84
2022/09/19 06:50:04;;;;;;;14.82;6.50;;;;;;;;;;5010255;28;20029;-83
2022/09/19 06:52:30;;;;;;;10.55;6.00;;;;;;;;;;5021306;28;20030;-83
2022/09/19 06:54:58;;;;;;;13.90;5.60;;;;;;;;;;5011592;28;20144;-83
2022/09/19 06:57:23;;;;;;;14.40;5.13;;;;;;;;;;4995207;28;20033;-83
2022/09/19 06:59:49;;;;;;;13.55;6.55;;;;;;;;;;4995308;28;20037;-83
2022/09/19 07:02:14;;;;;;;11.15;5.07;;;;;;;;;;5012263;28;20044;-82
2022/09/19 07:04:40;;;;;;;14.48;5.60;;;;;;;;;;4996572;28;20033;-83
2022/09/19 07:07:07;;;;;;;12.40;4.55;;;;;;;;;;5012494;28;20038;-84
2022/09/19 07:09:32;;;;;;;11.60;4.68;;;;;;;;;;4991924;28;20042;-84
2022/09/19 07:12:01;;;;;;;20.45;4.80;;;;;;;;;;4975639;28;20054;-84
2022/09/19 07:14:28;;;;;;;10.73;4.28;;;;;;;;;;4976082;28;20449;-84
2022/09/19 07:16:53;;;;;;;12.68;4.82;;;;;;;;;;4975327;28;20121;-84
2022/09/19 07:19:19;;;;;;;11.15;4.43;;;;;;;;;;5003590;28;20034;-84
2022/09/19 07:21:44;;;;;;;10.75;3.42;;;;;;;;;;4996210;28;20057;-84
2022/09/19 07:24:10;;;;;;;11.63;5.13;;;;;;;;;;5012362;28;20124;-83
2022/09/19 07:26:36;;;;;;;11.18;4.68;;;;;;;;;;5011893;28;20380;-84
2022/09/19 07:29:02;;;;;;;11.38;5.10;;;;;;;;;;4995390;28;20096;-82
2022/09/19 07:31:30;;;;;;;6.97;3.65;;;;;;;;;;4995976;28;20026;-84
2022/09/19 07:33:56;;;;;;;11.52;4.53;;;;;;;;;;5011234;28;20033;-84
2022/09/19 07:36:23;;;;;;;8.20;3.63;;;;;;;;;;4995027;28;20056;-83
2022/09/19 07:38:48;;;;;;;11.65;3.88;;;;;;;;;;5011224;28;20060;-83
2022/09/19 07:41:14;;;;;;;8.20;3.45;;;;;;;;;;4994841;28;20050;-83
2022/09/19 07:43:40;;;;;;;8.32;4.07;;;;;;;;;;4979347;28;20022;-84
2022/09/19 07:46:05;;;;;;;9.75;3.33;;;;;;;;;;4995163;28;20514;-83
2022/09/19 07:48:30;;;;;;;9.05;3.85;;;;;;;;;;4978796;28;20092;-84
2022/09/19 07:50:57;;;;;;;7.70;3.17;;;;;;;;;;4995701;28;20115;-84
2022/09/19 07:53:22;;;;;;;10.30;3.10;;;;;;;;;;4979104;28;20136;-84
2022/09/19 07:55:51;;;;;;;6.72;3.22;;;;;;;;;;5011688;28;20124;-83
2022/09/19 07:58:17;;;;;;;9.55;3.50;;;;;;;;;;4979223;28;20029;-83
2022/09/19 08:00:42;;;;;;;8.82;3.10;;;;;;;;;;4995674;28;20411;-83
2022/09/19 08:03:12;;;;;;;7.78;3.47;;;;;;;;;;4995706;28;20033;-83
2022/09/19 08:05:39;;;;;;;7.32;3.00;;;;;;;;;;5011255;28;20473;-83
2022/09/19 08:08:05;;;;;;;7.85;3.63;;;;;;;;;;4995054;28;20022;-84
2022/09/19 08:10:32;;;;;;;10.07;3.35;;;;;;;;;;5009953;28;20050;-83
2022/09/19 08:13:02;;;;;;;8.38;3.30;;;;;;;;;;5008438;28;20117;-85
2022/09/19 08:15:27;;;;;;;7.85;3.72;;;;;;;;;;4975283;28;20038;-84
2022/09/19 08:17:57;;;;;;;6.88;3.22;;;;;;;;;;5025070;28;20041;-86
2022/09/19 08:20:25;;;;;;;8.07;2.92;;;;;;;;;;4992318;28;20037;-85
2022/09/19 08:22:54;;;;;;;7.88;2.75;;;;;;;;;;4991015;28;20125;-84
2022/09/19 08:25:21;;;;;;;8.55;2.75;;;;;;;;;;4991944;28;20122;-86
2022/09/19 08:27:47;;;;;;;9.18;2.53;;;;;;;;;;5010982;28;20088;-83
2022/09/19 08:30:12;;;;;;;8.02;3.13;;;;;;;;;;4995164;28;20042;-83
2022/09/19 08:32:39;;;;;;;6.18;2.35;;;;;;;;;;4995234;28;20381;-83
2022/09/19 08:35:04;;;;;;;8.68;2.67;;;;;;;;;;4994845;28;20061;-82
2022/09/19 08:37:30;;;;;;;10.13;3.85;;;;;;;;;;4994494;28;20090;-83
2022/09/19 08:43:00;;;;;;;6.60;2.45;;;;;;;;;;5008550;28;20030;-83
2022/09/19 08:45:57;;;;;;;10.80;3.30;;;;;;;;;;4994161;28;20037;-82
2022/09/19 08:48:52;;;;;;;11.20;3.95;;;;;;;;;;5028135;28;20026;-83
2022/09/19 08:51:38;;;;;;;9.10;3.10;;;;;;;;;;4980999;28;20097;-82
2022/09/19 08:54:31;;;;;;;13.52;3.15;;;;;;;;;;4979532;28;20057;-82
2022/09/19 08:56:57;;;;;;;10.85;3.38;;;;;;;;;;4992699;28;20097;-82
2022/09/19 08:59:24;;;;;;;11.25;3.38;;;;;;;;;;4995553;28;20052;-83
2022/09/19 09:01:52;;;;;;;12.50;2.97;;;;;;;;;;4978682;28;20069;-81
2022/09/19 09:04:30;;;;;;;13.10;3.17;;;;;;;;;;5010009;28;20084;-82
2022/09/19 09:07:24;;;;;;;11.10;2.78;;;;;;;;;;5009525;28;20045;-82
2022/09/19 09:10:02;;;;;;;16.50;3.67;;;;;;;;;;4990688;28;20026;-82
2022/09/19 09:12:40;;;;;;;12.40;2.95;;;;;;;;;;4993887;28;20026;-82
2022/09/19 09:15:24;;;;;;;10.30;3.00;;;;;;;;;;5010750;28;20036;-82
2022/09/19 09:18:11;;;;;;;18.42;3.53;;;;;;;;;;5011970;28;20042;-82
2022/09/19 09:20:54;;;;;;;18.52;3.13;;;;;;;;;;4991389;28;20042;-81
2022/09/19 09:23:21;;;;;;;12.57;3.35;;;;;;;;;;4991998;28;20038;-82
2022/09/19 09:25:48;;;;;;;24.42;5.15;;;;;;;;;;4994917;28;20049;-83
2022/09/19 09:28:15;;;;;;;16.10;3.35;;;;;;;;;;4997503;28;20041;-84
2022/09/19 09:30:44;;;;;;;23.48;4.97;;;;;;;;;;4997470;28;20041;-83
2022/09/19 09:33:31;;;;;;;14.82;2.40;;;;;;;;;;4981464;28;20037;-83
2022/09/19 09:36:06;;;;;;;16.17;2.40;;;;;;;;;;4997148;28;20088;-84
2022/09/19 09:38:59;;;;;;;13.55;2.90;;;;;;;;;;4997031;28;20559;-84
2022/09/19 09:41:47;;;;;;;13.30;2.45;;;;;;;;;;4980759;28;20038;-84
2022/09/19 09:44:13;;;;;;;8.73;2.15;;;;;;;;;;5014050;28;20508;-84
2022/09/19 09:46:52;;;;;;;6.05;1.98;;;;;;;;;;5013804;28;20072;-84
2022/09/19 09:49:22;;;;;;;5.30;2.10;;;;;;;;;;5013655;28;20030;-84
2022/09/19 09:52:15;;;;;;;6.75;1.55;;;;;;;;;;5013727;28;20042;-84
2022/09/19 09:58:13;;;;;;;9.93;2.17;;;;;;;;;;5011420;28;20044;-86
2022/09/19 10:03:48;;;;;;;7.30;1.67;;;;;;;;;;4983810;28;20061;-85
2022/09/19 10:06:23;;;;;;;6.03;2.17;;;;;;;;;;4995808;28;20037;-85
2022/09/19 10:09:08;;;;;;;6.38;1.30;;;;;;;;;;4996493;28;20120;-84
2022/09/19 10:11:52;;;;;;;6.25;1.10;;;;;;;;;;5011866;28;20045;-84
2022/09/19 10:14:28;;;;;;;8.07;1.35;;;;;;;;;;4996740;28;20056;-84
2022/09/19 10:16:56;;;;;;;6.55;1.05;;;;;;;;;;4980029;28;20069;-85
2022/09/19 10:19:30;;;;;;;6.20;1.20;;;;;;;;;;4990402;28;20026;-84
2022/09/19 10:21:56;;;;;;;6.97;1.00;;;;;;;;;;5009078;28;20040;-84
2022/09/19 10:24:55;;;;;;;4.57;0.90;;;;;;;;;;5009158;28;20130;-84
2022/09/19 10:27:38;;;;;;;5.38;1.33;;;;;;;;;;4973208;28;20042;-84
2022/09/19 10:30:19;;;;;;;;;;;;;;;;;;5029421;28;20141;-82
2022/09/19 10:32:46;;;;;;;6.60;1.58;;;;;;;;;;5012326;28;19905;-82
2022/09/19 10:35:25;;;;;;;9.23;1.92;;;;;;;;;;4979480;28;20113;-81
2022/09/19 10:38:01;;;;;;;9.65;2.30;;;;;;;;;;5013028;28;20045;-82
2022/09/19 10:40:29;;;;;;;6.93;1.52;;;;;;;;;;5012168;28;20630;-82
2022/09/19 10:42:55;;;;;;;5.22;1.52;;;;;;;;;;4996129;28;20030;-82
2022/09/19 10:45:44;;;;;;;10.82;1.60;;;;;;;;;;4996473;28;20034;-82
2022/09/19 10:48:15;;;;;;;6.55;1.35;;;;;;;;;;4995520;28;20480;-82
2022/09/19 10:50:44;;;;;;;6.60;1.17;;;;;;;;;;5012807;28;20036;-83
2022/09/19 10:53:22;;;;;;;10.23;1.33;;;;;;;;;;4979849;28;20551;-83
2022/09/19 10:55:48;;;;;;;5.97;1.88;;;;;;;;;;4980318;28;20029;-83
2022/09/19 10:58:26;;;;;;;6.18;1.33;;;;;;;;;;4996034;28;20037;-82
2022/09/19 11:01:01;;;;;;;6.47;1.50;;;;;;;;;;5012981;28;20555;-82
2022/09/19 11:03:39;;;;;;;7.13;1.52;;;;;;;;;;5037181;23;20051;-83
2022/09/19 11:06:05;;;;;;;4.82;1.25;;;;;;;;;;5021324;28;20099;-82
2022/09/19 11:08:32;;;;;;;5.38;1.70;;;;;;;;;;5036413;28;20151;-83
2022/09/19 11:10:58;;;;;;;5.47;1.52;;;;;;;;;;5021241;28;20035;-82
2022/09/19 11:13:23;;;;;;;4.82;1.20;;;;;;;;;;5018105;28;20032;-83
2022/09/19 11:16:12;;;;;;;5.13;1.60;;;;;;;;;;5001676;28;20090;-82
2022/09/19 11:19:12;;;;;;;4.15;1.38;;;;;;;;;;5033181;28;20418;-81
2022/09/19 11:22:00;;;;;;;6.30;1.70;;;;;;;;;;5017683;28;20060;-81
2022/09/19 11:24:35;;;;;;;7.80;1.80;;;;;;;;;;5006724;28;20021;-81
2022/09/19 11:27:09;;;;;;;7.57;1.40;;;;;;;;;;5010897;28;20068;-81
2022/09/19 11:29:51;;;;;;;6.20;1.15;;;;;;;;;;5013210;28;20483;-82
2022/09/19 11:32:44;;;;;;;6.03;1.05;;;;;;;;;;4982589;28;20455;-82
2022/09/19 11:35:32;;;;;;;3.95;1.20;;;;;;;;;;5031576;28;20034;-82
2022/09/19 11:38:39;;;;;;;6.95;1.35;;;;;;;;;;4998314;28;20034;-81
2022/09/19 11:41:10;;;;;;;6.50;1.27;;;;;;;;;;5038556;28;20048;-82
2022/09/19 11:43:44;;;;;;;6.05;1.30;;;;;;;;;;5035017;28;20095;-82
2022/09/19 11:46:19;;;;;;;7.07;1.15;;;;;;;;;;5033675;28;20033;-81
2022/09/19 11:49:21;;;;;;;9.82;1.85;;;;;;;;;;5033488;28;20083;-81
2022/09/19 11:52:11;;;;;;;35.83;21.63;;;;;;;;;;5012718;28;20059;-82
2022/09/19 11:55:06;;;;;;;34.55;18.00;;;;;;;;;;5033413;28;20033;-81
2022/09/19 11:58:00;;;;;;;36.88;21.30;;;;;;;;;;4980004;28;20062;-82
2022/09/19 12:00:26;;;;;;;34.78;21.60;;;;;;;;;;5042565;28;20447;-82
2022/09/19 12:03:24;;;;;;;35.13;22.30;;;;;;;;;;5017242;28;20069;-81
2022/09/19 12:05:58;;;;;;;35.25;22.10;;;;;;;;;;5017614;28;20031;-81
2022/09/19 12:09:01;;;;;;;33.30;20.90;;;;;;;;;;5030486;28;20039;-83
2022/09/19 12:11:38;;;;;;;27.75;17.88;;;;;;;;;;5019260;28;20032;-82
2022/09/19 12:14:05;;;;;;;25.33;17.90;;;;;;;;;;5017558;28;20029;-83
2022/09/19 12:16:45;;;;;;;32.05;18.00;;;;;;;;;;5001099;28;20037;-83
2022/09/19 12:19:17;;;;;;;23.67;13.60;;;;;;;;;;4974629;28;20139;-82
2022/09/19 12:21:50;;;;;;;23.98;15.13;;;;;;;;;;5037404;28;20145;-82
2022/09/19 12:27:12;;;;;;;24.05;13.32;;;;;;;;;;5005708;28;20021;-82
2022/09/19 12:30:05;;;;;;;19.92;12.65;;;;;;;;;;4998412;28;20076;-82
2022/09/19 12:32:51;;;;;;;;;;;;;;;;;;4982846;28;20851;-81
2022/09/19 12:35:35;;;;;;;20.67;12.50;;;;;;;;;;4996817;28;19912;-82
2022/09/19 12:38:02;;;;;;;21.23;13.68;;;;;;;;;;4982103;28;20431;-82
2022/09/19 12:40:40;;;;;;;20.88;13.40;;;;;;;;;;4996988;28;20039;-82
2022/09/19 12:43:17;;;;;;;20.27;12.75;;;;;;;;;;4997151;28;20128;-81
2022/09/19 12:46:21;;;;;;;19.90;11.00;;;;;;;;;;4996360;28;20038;-81
2022/09/19 12:48:47;;;;;;;21.45;11.48;;;;;;;;;;4996785;28;20029;-81
2022/09/19 12:51:14;;;;;;;18.45;10.63;;;;;;;;;;5013186;28;20057;-82
2022/09/19 12:53:42;;;;;;;22.33;10.23;;;;;;;;;;4980887;28;20076;-82
2022/09/19 12:56:46;;;;;;;19.95;10.50;;;;;;;;;;4981152;28;20091;-82
2022/09/19 12:59:20;;;;;;;23.40;10.52;;;;;;;;;;4996571;28;20061;-81
2022/09/19 13:02:12;;;;;;;16.75;9.52;;;;;;;;;;4985387;28;20037;-82
2022/09/19 13:05:01;;;;;;;15.82;10.00;;;;;;;;;;5015373;28;20057;-81
2022/09/19 13:07:37;;;;;;;18.15;9.27;;;;;;;;;;5020870;28;20111;-81
2022/09/19 13:10:17;;;;;;;18.13;10.13;;;;;;;;;;5020477;28;20116;-82
2022/09/19 13:12:59;;;;;;;19.80;8.98;;;;;;;;;;5036300;28;20137;-82
2022/09/19 13:15:32;;;;;;;;;;;;;;;;;;5021021;28;20029;-82
2022/09/19 13:23:35;;;;;;;13.40;7.35;;;;;;;;;;5045412;28;20039;-81
2022/09/19 13:26:24;;;;;;;14.57;6.68;;;;;;;;;;5016416;28;20033;-82
2022/09/19 13:28:53;;;;;;;12.65;7.63;;;;;;;;;;4985261;28;20029;-82
2022/09/19 13:31:22;;;;;;;11.80;6.53;;;;;;;;;;4984903;28;20030;-82
2022/09/19 13:33:50;;;;;;;13.77;7.00;;;;;;;;;;5000955;28;20104;-82
2022/09/19 13:36:17;;;;;;;13.93;6.68;;;;;;;;;;4984084;28;20033;-82
2022/09/19 13:38:47;;;;;;;12.95;6.32;;;;;;;;;;4984175;28;20072;-82
2022/09/19 13:41:20;;;;;;;12.43;5.45;;;;;;;;;;5000857;28;20030;-82
2022/09/19 13:44:01;;;;;;;16.50;5.85;;;;;;;;;;5017226;28;20108;-82
2022/09/19 13:46:29;;;;;;;10.57;6.07;;;;;;;;;;4985264;28;20128;-82
2022/09/19 13:49:19;;;;;;;9.52;5.22;;;;;;;;;;5000530;28;20120;-82
2022/09/19 13:51:53;;;;;;;13.20;5.38;;;;;;;;;;4984361;28;20484;-82
2022/09/19 13:54:23;;;;;;;9.98;4.80;;;;;;;;;;5000574;28;20040;-83
2022/09/19 13:57:01;;;;;;;9.27;5.32;;;;;;;;;;5016526;28;20033;-82
2022/09/19 13:59:42;;;;;;;10.90;5.28;;;;;;;;;;5016424;28;20036;-82
2022/09/19 14:02:10;;;;;;;9.27;4.68;;;;;;;;;;4984007;28;20072;-82
2022/09/19 14:05:00;;;;;;;8.10;4.80;;;;;;;;;;5011869;28;20028;-82
2022/09/19 14:07:41;;;;;;;14.18;5.40;;;;;;;;;;5021538;28;20029;-82
2022/09/19 14:10:14;;;;;;;9.30;4.60;;;;;;;;;;5018442;28;20024;-82
2022/09/19 14:12:46;;;;;;;8.25;4.00;;;;;;;;;;5020108;28;20475;-82
2022/09/19 14:15:42;;;;;;;14.75;4.75;;;;;;;;;;5019671;28;20040;-82
2022/09/19 14:18:12;;;;;;;9.15;4.70;;;;;;;;;;5032522;28;20037;-83
2022/09/19 14:21:02;;;;;;;8.48;3.75;;;;;;;;;;5032151;28;20028;-82
2022/09/19 14:23:32;;;;;;;9.32;4.05;;;;;;;;;;5021941;28;20029;-83
2022/09/19 14:26:13;;;;;;;10.02;4.00;;;;;;;;;;5014951;28;20064;-83
2022/09/19 14:29:05;;;;;;;9.15;3.50;;;;;;;;;;5015806;28;20022;-83
2022/09/19 14:31:49;;;;;;;8.00;3.40;;;;;;;;;;5015596;28;20092;-86
2022/09/19 14:34:20;;;;;;;5.45;3.13;;;;;;;;;;4999515;28;20041;-82
2022/09/19 14:37:26;;;;;;;8.53;2.53;;;;;;;;;;5015866;28;20044;-81
2022/09/19 14:39:54;;;;;;;6.65;3.03;;;;;;;;;;5005522;28;20048;-82
2022/09/19 14:42:32;;;;;;;11.88;3.03;;;;;;;;;;4999121;28;20431;-82
2022/09/19 14:45:04;;;;;;;8.68;3.70;;;;;;;;;;5017128;28;20495;-82
2022/09/19 14:47:35;;;;;;;6.88;2.72;;;;;;;;;;5041545;28;20037;-81
2022/09/19 14:50:12;;;;;;;9.10;3.97;;;;;;;;;;4996570;28;20087;-81
2022/09/19 14:52:40;;;;;;;8.60;2.88;;;;;;;;;;4999470;28;20044;-81
2022/09/19 14:55:15;;;;;;;6.75;2.40;;;;;;;;;;4982768;28;20032;-81
2022/09/19 14:57:50;;;;;;;8.48;3.03;;;;;;;;;;4999502;28;20490;-82
2022/09/19 15:00:31;;;;;;;10.98;2.97;;;;;;;;;;5000083;28;20108;-81
2022/09/19 15:02:56;;;;;;;8.13;2.83;;;;;;;;;;4999358;28;20049;-82
2022/09/19 15:05:31;;;;;;;12.18;2.67;;;;;;;;;;5000608;28;20026;-82
2022/09/19 15:08:11;;;;;;;7.10;2.63;;;;;;;;;;5015397;28;20111;-81
2022/09/19 15:10:40;;;;;;;7.68;2.40;;;;;;;;;;5009071;28;20033;-81
2022/09/19 15:13:19;;;;;;;7.20;2.30;;;;;;;;;;5019548;28;20494;-81
2022/09/19 15:15:48;;;;;;;7.45;2.30;;;;;;;;;;4999142;28;20034;-81
2022/09/19 15:18:46;;;;;;;6.32;2.25;;;;;;;;;;4982421;28;20550;-82
2022/09/19 15:21:35;;;;;;;5.10;2.17;;;;;;;;;;5026186;28;20037;-82
2022/09/19 15:24:02;;;;;;;4.97;1.92;;;;;;;;;;5017421;28;20597;-81
2022/09/19 15:26:28;;;;;;;12.55;2.47;;;;;;;;;;5001463;28;20033;-81
2022/09/19 15:28:59;;;;;;;8.02;2.05;;;;;;;;;;4985448;28;20064;-82
2022/09/19 15:31:26;;;;;;;10.00;1.95;;;;;;;;;;5001051;28;20115;-82
2022/09/19 15:34:13;;;;;;;7.05;2.10;;;;;;;;;;5018490;28;20111;-82
2022/09/19 15:36:42;;;;;;;5.65;2.08;;;;;;;;;;4990013;28;20383;-81
2022/09/19 15:39:10;;;;;;;6.32;1.80;;;;;;;;;;5002434;28;20040;-80
2022/09/19 15:41:35;;;;;;;10.40;2.47;;;;;;;;;;5003152;28;20148;-82
2022/09/19 15:44:02;;;;;;;12.85;2.95;;;;;;;;;;5001685;28;20925;-80
2022/09/19 15:46:31;;;;;;;10.98;2.58;;;;;;;;;;5001056;28;20556;-80
2022/09/19 15:49:00;;;;;;;14.88;2.92;;;;;;;;;;5051900;28;20041;-81
2022/09/19 15:51:32;;;;;;;12.00;2.35;;;;;;;;;;5001539;28;20091;-81
2022/09/19 15:54:01;;;;;;;11.13;2.15;;;;;;;;;;5018099;28;20033;-81
2022/09/19 15:56:27;;;;;;;8.68;1.73;;;;;;;;;;5001971;28;20032;-81
2022/09/19 15:59:01;;;;;;;9.55;2.08;;;;;;;;;;4985419;28;20467;-81
2022/09/19 16:01:31;;;;;;;6.28;2.00;;;;;;;;;;5018003;28;20114;-81
2022/09/19 16:03:57;;;;;;;6.95;2.05;;;;;;;;;;4989188;28;20372;-80
2022/09/19 16:09:51;;;;;;;10.98;2.65;;;;;;;;;;4968378;28;20038;-80
2022/09/19 16:12:19;;;;;;;7.93;2.05;;;;;;;;;;4975332;28;20092;-80
2022/09/19 16:14:45;;;;;;;11.30;2.08;;;;;;;;;;5031308;28;20033;-80
2022/09/19 16:17:22;;;;;;;12.18;3.08;;;;;;;;;;4997587;28;20048;-80
2022/09/19 16:19:48;;;;;;;7.28;1.95;;;;;;;;;;5017587;28;20024;-80
2022/09/19 16:22:15;;;;;;;24.55;22.27;;;;;;;;;;5020148;28;20140;-80
2022/09/19 16:24:43;;;;;;;41.47;37.67;;;;;;;;;;5020350;28;20037;-80